createdAt,value
2018-04-10T00:02:02.460Z,28.70
2018-04-10T00:04:33.865Z,27.30
2018-04-10T00:07:05.055Z,26.97
2018-04-10T00:09:37.241Z,28.43
2018-04-10T00:12:09.185Z,30.03
2018-04-10T00:14:40.616Z,27.47
2018-04-10T00:17:11.784Z,30.17
2018-04-10T00:19:43.103Z,26.30
2018-04-10T00:22:14.275Z,27.57
2018-04-10T00:24:46.259Z,27.90
2018-04-10T00:27:18.200Z,27.53
2018-04-10T00:29:49.446Z,28.00
2018-04-10T00:32:21.432Z,29.10
2018-04-10T00:34:53.411Z,29.97
2018-04-10T00:37:24.635Z,29.80
2018-04-10T00:39:56.629Z,31.93
2018-04-10T00:42:27.850Z,33.10
2018-04-10T00:44:59.080Z,32.07
2018-04-10T00:47:31.059Z,30.63
2018-04-10T00:50:02.266Z,29.37
2018-04-10T00:52:33.478Z,30.80
2018-04-10T00:55:04.963Z,29.70
2018-04-10T00:57:36.198Z,31.27
2018-04-10T01:00:08.219Z,29.00
2018-04-10T01:02:39.430Z,30.90
2018-04-10T01:05:11.404Z,31.20
2018-04-10T01:07:42.630Z,32.33
2018-04-10T01:10:14.570Z,31.70
2018-04-10T01:12:45.822Z,31.80
2018-04-10T01:15:17.795Z,33.83
2018-04-10T01:17:49.775Z,31.37
2018-04-10T01:20:21.247Z,29.70
2018-04-10T01:22:52.474Z,30.43
2018-04-10T01:25:23.743Z,32.13
2018-04-10T01:27:54.955Z,32.20
2018-04-10T01:30:26.931Z,31.43
2018-04-10T01:32:58.202Z,36.50
2018-04-10T01:35:29.449Z,33.00
2018-04-10T01:38:00.770Z,31.67
2018-04-10T01:40:32.028Z,33.53
2018-04-10T01:43:03.276Z,33.30
2018-04-10T01:45:34.458Z,31.70
2018-04-10T01:48:06.435Z,35.93
2018-04-10T01:50:38.376Z,31.87
2018-04-10T01:53:09.676Z,34.67
2018-04-10T01:55:41.114Z,30.40
2018-04-10T01:58:12.285Z,34.77
2018-04-10T02:00:43.542Z,33.43
2018-04-10T02:03:14.715Z,35.03
2018-04-10T02:05:46.666Z,32.73
2018-04-10T02:08:17.929Z,33.77
2018-04-10T02:10:49.087Z,33.50
2018-04-10T02:13:21.027Z,34.33
2018-04-10T02:15:53.012Z,38.73
2018-04-10T02:18:24.201Z,34.07
2018-04-10T02:20:55.734Z,38.90
2018-04-10T02:23:26.930Z,38.37
2018-04-10T02:25:58.865Z,35.77
2018-04-10T02:28:30.827Z,35.00
2018-04-10T02:31:02.023Z,38.20
2018-04-10T02:33:33.223Z,39.90
2018-04-10T02:36:05.149Z,38.07
2018-04-10T02:38:36.394Z,39.13
2018-04-10T02:41:07.674Z,35.80
2018-04-10T02:43:39.649Z,34.70
2018-04-10T02:46:11.652Z,37.07
2018-04-10T02:48:43.093Z,41.30
2018-04-10T02:51:14.277Z,36.87
2018-04-10T02:53:45.706Z,39.47
2018-04-10T02:56:16.885Z,40.90
2018-04-10T02:58:48.097Z,37.77
2018-04-10T03:01:19.367Z,40.03
2018-04-10T03:03:50.577Z,38.77
2018-04-10T03:06:21.772Z,38.80
2018-04-10T03:08:53.729Z,38.97
2018-04-10T03:11:24.970Z,42.93
2018-04-10T03:13:56.138Z,39.80
2018-04-10T03:16:27.382Z,39.93
2018-04-10T03:18:58.869Z,43.07
2018-04-10T03:21:30.035Z,39.60
2018-04-10T03:24:01.564Z,39.53
2018-04-10T03:26:32.789Z,41.90
2018-04-10T03:29:04.342Z,39.27
2018-04-10T03:31:35.526Z,40.80
2018-04-10T03:34:07.490Z,39.93
2018-04-10T03:36:38.723Z,41.37
2018-04-10T03:39:09.969Z,40.63
2018-04-10T03:41:41.290Z,43.57
2018-04-10T03:44:12.699Z,38.43
2018-04-10T03:46:44.667Z,41.30
2018-04-10T03:49:15.946Z,42.03
2018-04-10T03:51:47.120Z,44.27
2018-04-10T03:54:18.458Z,39.07
2018-04-10T03:56:49.618Z,39.07
2018-04-10T03:59:20.887Z,43.23
2018-04-10T04:01:52.167Z,43.67
2018-04-10T04:04:23.402Z,38.47
2018-04-10T04:06:55.461Z,40.50
2018-04-10T04:09:27.040Z,42.23
2018-04-10T04:11:58.277Z,40.33
2018-04-10T04:14:30.325Z,40.43
2018-04-10T04:17:13.935Z,42.47
2018-04-10T04:19:57.556Z,41.57
2018-04-10T04:22:38.618Z,38.73
2018-04-10T04:25:10.959Z,39.70
2018-04-10T04:27:42.170Z,38.30
2018-04-10T04:30:13.370Z,41.67
2018-04-10T04:32:44.879Z,40.50
2018-04-10T04:35:16.077Z,39.13
2018-04-10T04:37:48.043Z,37.83
2018-04-10T04:40:19.959Z,40.10
2018-04-10T04:42:51.216Z,36.73
2018-04-10T04:45:22.466Z,38.17
2018-04-10T04:47:53.706Z,39.67
2018-04-10T04:50:24.881Z,38.83
2018-04-10T04:52:56.834Z,38.53
2018-04-10T04:55:28.038Z,37.13
2018-04-10T04:57:59.250Z,38.80
2018-04-10T05:00:30.458Z,37.83
2018-04-10T05:03:02.500Z,38.77
2018-04-10T05:05:33.758Z,38.60
2018-04-10T05:08:05.004Z,41.23
2018-04-10T05:10:36.438Z,37.30
2018-04-10T05:13:07.665Z,34.53
2018-04-10T05:15:38.866Z,36.70
2018-04-10T05:18:10.799Z,33.87
2018-04-10T05:20:42.016Z,37.47
2018-04-10T05:23:13.463Z,36.23
2018-04-10T05:25:44.686Z,34.60
2018-04-10T05:28:15.950Z,38.40
2018-04-10T05:30:47.129Z,35.63
2018-04-10T05:33:18.343Z,35.50
2018-04-10T05:35:49.635Z,40.17
2018-04-10T05:38:21.607Z,37.07
2018-04-10T05:40:52.842Z,37.00
2018-04-10T05:43:24.843Z,36.07
2018-04-10T05:45:56.054Z,34.07
2018-04-10T05:48:27.303Z,35.40
2018-04-10T05:50:59.344Z,39.70
2018-04-10T05:53:30.509Z,34.37
2018-04-10T05:56:01.754Z,38.27
2018-04-10T05:58:32.952Z,34.03
2018-04-10T06:01:04.213Z,39.30
2018-04-10T06:03:35.543Z,38.53
2018-04-10T06:06:06.750Z,38.53
2018-04-10T06:08:37.989Z,34.87
2018-04-10T06:11:09.238Z,39.23
2018-04-10T06:13:40.454Z,32.87
2018-04-10T06:16:12.448Z,34.90
2018-04-10T06:18:43.630Z,34.90
2018-04-10T06:21:14.905Z,34.73
2018-04-10T06:23:46.889Z,35.13
2018-04-10T06:26:18.133Z,34.03
2018-04-10T06:28:49.368Z,35.23
2018-04-10T06:31:21.046Z,37.93
2018-04-10T06:33:52.252Z,35.83
2018-04-10T06:36:24.253Z,35.80
2018-04-10T06:38:55.435Z,37.57
2018-04-10T06:41:26.673Z,55.33
2018-04-10T06:43:58.075Z,45.23
2018-04-10T06:46:29.343Z,35.80
2018-04-10T06:49:00.539Z,39.30
2018-04-10T06:51:32.609Z,37.13
2018-04-10T06:54:03.954Z,37.30
2018-04-10T06:56:35.438Z,31.03
2018-04-10T06:59:06.619Z,37.37
2018-04-10T07:01:38.260Z,37.63
2018-04-10T07:04:09.607Z,37.70
2018-04-10T07:06:40.972Z,37.40
2018-04-10T07:09:12.397Z,31.43
2018-04-10T07:11:43.592Z,32.53
2018-04-10T07:14:14.942Z,33.43
2018-04-10T07:16:46.130Z,34.37
2018-04-10T07:19:17.606Z,34.67
2018-04-10T07:21:49.555Z,33.57
2018-04-10T07:24:21.597Z,36.57
2018-04-10T07:26:52.842Z,30.93
2018-04-10T07:29:24.049Z,37.60
2018-04-10T07:31:55.331Z,33.93
2018-04-10T07:34:26.584Z,37.60
2018-04-10T07:36:58.023Z,32.73
2018-04-10T07:39:29.238Z,37.30
2018-04-10T07:42:00.540Z,33.07
2018-04-10T07:44:32.070Z,36.07
2018-04-10T07:47:03.305Z,31.60
2018-04-10T07:49:34.530Z,32.47
2018-04-10T07:52:05.885Z,36.87
2018-04-10T07:54:37.104Z,32.50
2018-04-10T07:57:08.359Z,31.47
2018-04-10T07:59:39.612Z,33.97
2018-04-10T08:02:10.961Z,34.87
2018-04-10T08:04:42.247Z,32.00
2018-04-10T08:07:14.267Z,37.50
2018-04-10T08:09:45.511Z,29.97
2018-04-10T08:12:16.790Z,36.03
2018-04-10T08:14:48.055Z,31.50
2018-04-10T08:17:19.268Z,37.73
2018-04-10T08:19:50.497Z,34.97
2018-04-10T08:22:21.970Z,31.43
2018-04-10T08:24:53.218Z,34.27
2018-04-10T08:27:24.485Z,29.23
2018-04-10T08:29:55.771Z,32.53
2018-04-10T08:32:27.444Z,31.97
2018-04-10T08:34:58.714Z,32.20
2018-04-10T08:37:29.970Z,30.17
2018-04-10T08:40:01.929Z,37.10
2018-04-10T08:42:33.170Z,30.60
2018-04-10T08:45:04.742Z,30.87
2018-04-10T08:47:36.302Z,36.80
2018-04-10T08:50:08.306Z,33.60
2018-04-10T08:52:39.524Z,30.67
2018-04-10T08:55:10.759Z,36.20
2018-04-10T08:57:42.781Z,32.83
2018-04-10T09:00:14.109Z,33.90
2018-04-10T09:02:45.374Z,29.40
2018-04-10T09:05:17.493Z,31.00
2018-04-10T09:07:48.773Z,28.70
2018-04-10T09:10:20.010Z,33.83
2018-04-10T09:12:51.262Z,28.60
2018-04-10T09:15:22.569Z,31.10
2018-04-10T09:17:53.800Z,29.53
2018-04-10T09:20:25.781Z,27.43
2018-04-10T09:22:57.803Z,26.63
2018-04-10T09:25:29.829Z,27.27
2018-04-10T09:28:01.281Z,32.03
2018-04-10T09:30:32.542Z,28.60
2018-04-10T09:33:03.818Z,29.07
2018-04-10T09:35:35.056Z,28.40
2018-04-10T09:38:06.550Z,28.07
2018-04-10T09:40:37.736Z,26.47
2018-04-10T09:43:09.793Z,25.60
2018-04-10T09:45:41.829Z,28.83
2018-04-10T09:48:13.231Z,34.57
2018-04-10T09:50:44.421Z,32.63
2018-04-10T09:53:15.959Z,26.90
2018-04-10T09:55:47.158Z,26.33
2018-04-10T09:58:18.534Z,24.83
2018-04-10T10:00:49.874Z,25.40
2018-04-10T10:03:21.295Z,29.13
2018-04-10T10:05:52.759Z,30.47
2018-04-10T10:08:24.060Z,26.50
2018-04-10T10:10:55.280Z,28.37
2018-04-10T10:13:26.548Z,26.73
2018-04-10T10:15:57.863Z,26.03
2018-04-10T10:18:29.330Z,23.93
2018-04-10T10:21:00.522Z,23.67
2018-04-10T10:23:32.511Z,24.37
2018-04-10T10:26:03.874Z,22.47
2018-04-10T10:28:35.809Z,23.97
2018-04-10T10:31:07.016Z,21.47
2018-04-10T10:33:38.239Z,24.37
2018-04-10T10:36:09.536Z,26.00
2018-04-10T10:38:42.362Z,26.10
2018-04-10T10:41:13.689Z,23.53
2018-04-10T10:43:45.713Z,22.80
2018-04-10T10:46:17.063Z,22.07
2018-04-10T10:48:49.146Z,22.70
2018-04-10T10:51:20.529Z,21.60
2018-04-10T10:53:51.760Z,23.70
2018-04-10T10:56:23.027Z,22.30
2018-04-10T10:58:54.302Z,21.00
2018-04-10T11:01:25.490Z,25.43
2018-04-10T11:03:56.762Z,25.30
2018-04-10T11:06:28.218Z,22.17
2018-04-10T11:08:59.489Z,25.77
2018-04-10T11:11:30.686Z,21.63
2018-04-10T11:14:01.988Z,142.27
2018-04-10T11:16:33.299Z,26.03
2018-04-10T11:19:04.506Z,21.00
2018-04-10T11:21:35.752Z,23.63
2018-04-10T11:24:06.990Z,24.20
2018-04-10T11:26:39.008Z,20.33
2018-04-10T11:29:10.392Z,24.13
2018-04-10T11:31:41.689Z,21.43
2018-04-10T11:34:13.004Z,18.30
2018-04-10T11:36:44.225Z,20.27
2018-04-10T11:39:15.745Z,24.17
2018-04-10T11:41:48.399Z,19.17
2018-04-10T13:06:21.718Z,12.70
2018-04-10T13:08:53.016Z,8.77
2018-04-10T13:11:24.253Z,21.93
2018-04-10T13:13:55.655Z,14.93
2018-04-10T13:16:26.925Z,14.83
2018-04-10T13:18:58.910Z,12.30
2018-04-10T13:21:30.202Z,13.80
2018-04-10T13:24:01.399Z,12.57
2018-04-10T13:26:32.626Z,13.47
2018-04-10T13:29:04.247Z,14.07
2018-04-10T13:31:35.460Z,17.43
2018-04-10T13:34:06.861Z,12.60
2018-04-10T13:36:39.105Z,13.80
2018-04-10T13:39:10.457Z,17.60
2018-04-10T13:41:41.778Z,16.50
2018-04-10T13:44:13.072Z,13.73
2018-04-10T13:46:44.341Z,13.93
2018-04-10T13:49:15.564Z,26.67
2018-04-10T13:51:46.824Z,17.73
2018-04-10T13:54:18.093Z,19.83
2018-04-10T13:56:49.320Z,19.10
2018-04-10T13:59:20.567Z,22.87
2018-04-10T14:01:53.262Z,22.60
2018-04-10T14:04:25.254Z,18.63
2018-04-10T14:06:56.523Z,19.03
2018-04-10T14:09:28.454Z,18.03
2018-04-10T14:12:00.261Z,18.70
2018-04-10T14:14:31.552Z,24.07
2018-04-10T14:17:02.801Z,17.33
2018-04-10T14:19:34.792Z,19.57
2018-04-10T14:22:06.272Z,16.73
2018-04-10T14:24:37.478Z,33.97
2018-04-10T14:27:08.731Z,19.03
2018-04-10T14:29:40.647Z,18.17
2018-04-10T14:32:11.910Z,17.87
2018-04-10T14:34:43.264Z,16.20
2018-04-10T14:37:14.941Z,19.47
2018-04-10T14:39:46.203Z,19.93
2018-04-10T14:42:17.450Z,16.60
2018-04-10T14:44:48.929Z,19.73
2018-04-10T14:47:20.363Z,18.67
2018-04-10T14:49:51.584Z,19.47
2018-04-10T14:52:22.805Z,15.57
2018-04-10T14:54:54.833Z,18.47
2018-04-10T14:57:26.262Z,17.90
2018-04-10T14:59:57.461Z,17.00
2018-04-10T15:02:28.658Z,20.10
2018-04-10T15:04:59.884Z,13.40
2018-04-10T15:07:31.125Z,16.90
2018-04-10T15:10:02.412Z,18.33
2018-04-10T15:12:34.370Z,15.17
2018-04-10T15:15:05.753Z,18.57
2018-04-10T15:17:37.771Z,15.90
2018-04-10T15:20:08.987Z,17.70
2018-04-10T15:22:40.469Z,13.97
2018-04-10T15:25:11.650Z,12.40
2018-04-10T15:27:43.649Z,14.33
2018-04-10T15:30:14.871Z,17.53
2018-04-10T15:32:46.162Z,16.10
2018-04-10T15:35:17.750Z,19.23
2018-04-10T15:37:49.700Z,25.33
2018-04-10T15:40:29.115Z,16.60
2018-04-10T15:43:01.124Z,17.73
2018-04-10T15:45:32.357Z,14.23
2018-04-10T15:48:04.601Z,18.77
2018-04-10T15:50:35.829Z,18.10
2018-04-10T15:53:07.068Z,13.70
2018-04-10T15:55:38.570Z,18.53
2018-04-10T15:58:09.840Z,15.27
2018-04-10T16:00:41.451Z,14.83
2018-04-10T16:03:12.692Z,14.33
2018-04-10T16:05:43.997Z,12.10
2018-04-10T16:08:15.223Z,17.83
2018-04-10T16:10:46.744Z,11.83
2018-04-10T16:13:18.254Z,14.77
2018-04-10T16:15:49.509Z,17.23
2018-04-10T16:18:20.766Z,13.17
2018-04-10T16:20:52.040Z,17.93
2018-04-10T16:23:23.341Z,15.57
2018-04-10T16:25:54.651Z,13.87
2018-04-10T16:28:26.217Z,15.83
2018-04-10T16:30:57.491Z,13.20
2018-04-10T16:33:28.740Z,13.73
2018-04-10T16:35:59.937Z,15.07
2018-04-10T16:38:31.312Z,17.50
2018-04-10T16:41:02.911Z,16.67
2018-04-10T16:43:34.917Z,16.90
2018-04-10T16:46:06.151Z,14.57
2018-04-10T16:48:37.391Z,13.03
2018-04-10T16:51:08.619Z,13.57
2018-04-10T16:53:39.868Z,13.83
2018-04-10T16:56:12.159Z,18.87
2018-04-10T16:58:43.460Z,13.87
2018-04-10T17:01:15.911Z,16.57
2018-04-10T17:03:47.108Z,15.03
2018-04-10T17:06:18.607Z,13.90
2018-04-10T17:08:49.818Z,15.23
2018-04-10T17:11:21.054Z,14.80
2018-04-10T17:13:52.297Z,14.27
2018-04-10T17:16:23.613Z,15.23
2018-04-10T17:18:55.884Z,11.00
2018-04-10T17:21:27.845Z,12.87
2018-04-10T17:23:59.093Z,16.37
2018-04-10T17:26:31.050Z,11.30
2018-04-10T17:29:03.061Z,13.60
2018-04-10T17:31:34.251Z,9.17
2018-04-10T17:34:05.511Z,8.07
2018-04-10T17:36:37.543Z,10.23
2018-04-10T17:39:08.798Z,11.10
2018-04-10T17:41:40.010Z,10.63
2018-04-10T17:44:11.339Z,16.27
2018-04-10T17:46:42.562Z,18.20
2018-04-10T17:49:13.824Z,9.43
2018-04-10T17:51:45.034Z,7.67
2018-04-10T17:54:16.996Z,8.53
2018-04-10T17:56:49.045Z,5.80
2018-04-10T17:59:21.010Z,11.57
2018-04-10T18:01:52.933Z,10.47
2018-04-10T18:04:24.195Z,19.37
2018-04-10T18:06:56.182Z,21.47
2018-04-10T18:09:28.380Z,17.73
2018-04-10T18:11:59.594Z,26.53
2018-04-10T18:14:30.811Z,21.23
2018-04-10T18:17:02.170Z,19.23
2018-04-10T18:19:34.209Z,21.00
2018-04-10T18:22:05.385Z,22.63
2018-04-10T18:24:37.328Z,23.53
2018-04-10T18:27:08.518Z,22.20
2018-04-10T18:29:39.777Z,28.97
2018-04-10T18:32:10.947Z,27.53
2018-04-10T18:34:42.142Z,26.63
2018-04-10T18:37:13.378Z,21.47
2018-04-10T18:39:45.323Z,22.63
2018-04-10T18:42:17.317Z,25.20
2018-04-10T18:44:49.306Z,24.07
2018-04-10T18:47:20.517Z,24.13
2018-04-10T18:49:52.563Z,27.23
2018-04-10T18:52:24.159Z,23.50
2018-04-10T18:54:55.374Z,26.43
2018-04-10T18:57:26.625Z,26.97
2018-04-10T18:59:57.867Z,25.57
2018-04-10T19:02:29.051Z,26.67
2018-04-10T19:05:00.283Z,33.37
2018-04-10T19:07:31.462Z,29.23
2018-04-10T19:10:02.699Z,25.93
2018-04-10T19:12:33.846Z,24.07
2018-04-10T19:15:05.105Z,30.37
2018-04-10T19:17:37.079Z,25.37
2018-04-10T19:20:08.314Z,23.17
2018-04-10T19:22:40.266Z,22.77
2018-04-10T19:25:11.468Z,25.60
2018-04-10T19:27:42.690Z,30.53
2018-04-10T19:30:13.899Z,27.47
2018-04-10T19:32:45.184Z,25.93
2018-04-10T19:35:16.688Z,26.07
2018-04-10T19:37:48.035Z,27.47
2018-04-10T19:40:19.209Z,24.03
2018-04-10T19:42:51.162Z,32.20
2018-04-10T19:45:23.086Z,27.17
2018-04-10T19:47:54.281Z,22.70
2018-04-10T19:50:25.458Z,27.13
2018-04-10T19:52:56.717Z,25.20
2018-04-10T19:55:27.937Z,27.90
2018-04-10T19:57:59.213Z,22.47
2018-04-10T20:00:30.438Z,28.17
2018-04-10T20:03:01.731Z,25.90
2018-04-10T20:05:33.780Z,28.90
2018-04-10T20:08:05.060Z,27.37
2018-04-10T20:10:36.277Z,27.13
2018-04-10T20:13:08.218Z,29.20
2018-04-10T20:15:39.427Z,26.53
2018-04-10T20:18:10.765Z,25.87
2018-04-10T20:20:41.950Z,26.93
2018-04-10T20:23:13.174Z,29.63
2018-04-10T20:25:44.326Z,28.20
2018-04-10T20:28:15.762Z,29.13
2018-04-10T20:30:46.997Z,24.93
2018-04-10T20:33:18.245Z,26.30
2018-04-10T20:35:49.443Z,28.27
2018-04-10T20:38:21.649Z,24.57
2018-04-10T20:40:52.802Z,33.23
2018-04-10T20:43:24.046Z,27.40
2018-04-10T20:45:55.232Z,28.73
2018-04-10T20:48:27.260Z,26.17
2018-04-10T20:50:58.471Z,29.27
2018-04-10T20:53:29.920Z,25.30
2018-04-10T20:56:01.087Z,27.17
2018-04-10T20:58:32.509Z,27.43
2018-04-10T21:01:03.723Z,25.77
2018-04-10T21:03:35.646Z,27.50
2018-04-10T21:06:07.806Z,22.23
2018-04-10T21:08:39.000Z,26.00
2018-04-10T21:11:10.900Z,30.13
2018-04-10T21:13:42.110Z,29.20
2018-04-10T21:16:14.038Z,29.87
2018-04-10T21:18:46.430Z,27.10
2018-04-10T21:21:18.412Z,30.17
2018-04-10T21:23:49.621Z,28.60
2018-04-10T21:26:21.657Z,31.40
2018-04-10T21:28:52.847Z,30.67
2018-04-10T21:31:24.081Z,26.70
2018-04-10T21:33:55.309Z,31.57
2018-04-10T21:36:26.557Z,31.67
2018-04-10T21:38:57.878Z,25.97
2018-04-10T21:41:29.053Z,30.57
2018-04-10T21:44:00.442Z,24.93
2018-04-10T21:46:31.944Z,27.43
2018-04-10T21:49:03.161Z,27.93
2018-04-10T21:51:34.361Z,28.47
2018-04-10T21:54:05.765Z,30.47
2018-04-10T21:56:36.926Z,27.07
2018-04-10T21:59:08.267Z,34.67
2018-04-10T22:01:39.445Z,30.93
2018-04-10T22:04:10.687Z,31.57
2018-04-10T22:06:41.969Z,30.20
2018-04-10T22:09:13.398Z,32.27
2018-04-10T22:11:44.614Z,32.27
2018-04-10T22:14:15.889Z,30.40
2018-04-10T22:16:47.097Z,33.80
2018-04-10T22:19:18.371Z,28.43
2018-04-10T22:21:49.596Z,37.90
2018-04-10T22:24:20.809Z,29.90
2018-04-10T22:26:52.000Z,37.00
2018-04-10T22:29:23.947Z,32.17
2018-04-10T22:31:55.146Z,34.43
2018-04-10T22:34:26.341Z,30.63
2018-04-10T22:36:57.558Z,29.67
2018-04-10T22:39:28.996Z,29.50
2018-04-10T22:42:00.944Z,29.73
2018-04-10T22:44:32.222Z,37.30
2018-04-10T22:47:04.089Z,26.80
2018-04-10T22:49:35.303Z,31.70
2018-04-10T22:52:07.235Z,30.43
2018-04-10T22:54:39.231Z,29.63
2018-04-10T22:57:11.156Z,29.50
2018-04-10T22:59:42.487Z,28.50
2018-04-10T23:02:14.024Z,29.33
2018-04-10T23:04:45.198Z,27.43
2018-04-10T23:07:16.418Z,27.73
2018-04-10T23:09:47.583Z,28.53
2018-04-10T23:12:18.827Z,25.43
2018-04-10T23:14:49.994Z,27.97
2018-04-10T23:17:22.337Z,28.03
2018-04-10T23:19:53.530Z,32.23
2018-04-10T23:22:25.645Z,30.00
2018-04-10T23:24:56.819Z,34.80
2018-04-10T23:27:28.947Z,30.77
2018-04-10T23:30:00.156Z,31.07
2018-04-10T23:32:31.329Z,27.80
2018-04-10T23:35:03.270Z,29.27
2018-04-10T23:37:35.243Z,27.17
2018-04-10T23:40:07.254Z,30.87
2018-04-10T23:42:38.451Z,29.23
2018-04-10T23:45:10.487Z,28.33
2018-04-10T23:47:41.670Z,36.00
2018-04-10T23:50:12.862Z,27.90
2018-04-10T23:52:44.036Z,29.57
2018-04-10T23:55:15.980Z,27.33
2018-04-10T23:57:47.154Z,26.13
